sensor_id;sensor_type;location;lat;lon;timestamp;temperature;humidity
68719;DHT22;55696;52.138;5.444;2023-10-08T00:00:25;21.30;67.80
68719;DHT22;55696;52.138;5.444;2023-10-08T00:03:10;21.20;67.80
68719;DHT22;55696;52.138;5.444;2023-10-08T00:05:37;21.20;67.80
68719;DHT22;55696;52.138;5.444;2023-10-08T00:08:06;21.20;67.80
68719;DHT22;55696;52.138;5.444;2023-10-08T00:10:38;21.40;68.00
68719;DHT22;55696;52.138;5.444;2023-10-08T00:13:08;21.20;68.10
68719;DHT22;55696;52.138;5.444;2023-10-08T00:15:36;21.90;68.40
68719;DHT22;55696;52.138;5.444;2023-10-08T00:18:04;21.00;68.10
68719;DHT22;55696;52.138;5.444;2023-10-08T00:20:37;21.20;68.30
68719;DHT22;55696;52.138;5.444;2023-10-08T00:23:21;21.60;68.70
68719;DHT22;55696;52.138;5.444;2023-10-08T00:25:48;21.20;68.40
68719;DHT22;55696;52.138;5.444;2023-10-08T00:28:17;21.80;68.70
68719;DHT22;55696;52.138;5.444;2023-10-08T00:30:44;21.10;68.40
68719;DHT22;55696;52.138;5.444;2023-10-08T00:33:11;21.80;68.80
68719;DHT22;55696;52.138;5.444;2023-10-08T00:35:42;21.20;68.50
68719;DHT22;55696;52.138;5.444;2023-10-08T00:38:09;21.20;68.60
68719;DHT22;55696;52.138;5.444;2023-10-08T00:40:42;21.50;68.80
68719;DHT22;55696;52.138;5.444;2023-10-08T00:43:34;21.10;68.50
68719;DHT22;55696;52.138;5.444;2023-10-08T00:46:07;21.60;69.20
68719;DHT22;55696;52.138;5.444;2023-10-08T00:48:53;21.40;68.90
68719;DHT22;55696;52.138;5.444;2023-10-08T00:51:22;21.20;68.70
68719;DHT22;55696;52.138;5.444;2023-10-08T00:54:02;21.50;68.80
68719;DHT22;55696;52.138;5.444;2023-10-08T00:56:35;21.20;68.70
68719;DHT22;55696;52.138;5.444;2023-10-08T00:59:13;21.00;68.50
68719;DHT22;55696;52.138;5.444;2023-10-08T01:01:45;21.10;68.50
68719;DHT22;55696;52.138;5.444;2023-10-08T01:04:22;21.30;68.80
68719;DHT22;55696;52.138;5.444;2023-10-08T01:06:53;21.30;68.80
68719;DHT22;55696;52.138;5.444;2023-10-08T01:09:27;21.30;68.80
68719;DHT22;55696;52.138;5.444;2023-10-08T01:12:14;21.20;68.60
68719;DHT22;55696;52.138;5.444;2023-10-08T01:14:49;21.40;68.90
68719;DHT22;55696;52.138;5.444;2023-10-08T01:17:21;21.80;68.90
68719;DHT22;55696;52.138;5.444;2023-10-08T01:19:52;21.10;68.70
68719;DHT22;55696;52.138;5.444;2023-10-08T01:22:36;21.20;68.70
68719;DHT22;55696;52.138;5.444;2023-10-08T01:25:05;20.80;68.60
68719;DHT22;55696;52.138;5.444;2023-10-08T01:27:32;21.10;68.90
68719;DHT22;55696;52.138;5.444;2023-10-08T01:30:04;21.40;69.10
68719;DHT22;55696;52.138;5.444;2023-10-08T01:32:38;21.10;69.00
68719;DHT22;55696;52.138;5.444;2023-10-08T01:35:05;21.20;69.10
68719;DHT22;55696;52.138;5.444;2023-10-08T01:37:52;21.00;69.00
68719;DHT22;55696;52.138;5.444;2023-10-08T01:40:19;21.00;69.40
68719;DHT22;55696;52.138;5.444;2023-10-08T01:42:46;21.10;69.30
68719;DHT22;55696;52.138;5.444;2023-10-08T01:45:13;21.50;70.50
68719;DHT22;55696;52.138;5.444;2023-10-08T01:47:45;21.00;69.40
68719;DHT22;55696;52.138;5.444;2023-10-08T01:50:12;21.00;69.40
68719;DHT22;55696;52.138;5.444;2023-10-08T01:52:48;21.60;69.80
68719;DHT22;55696;52.138;5.444;2023-10-08T01:55:15;20.90;69.40
68719;DHT22;55696;52.138;5.444;2023-10-08T01:57:46;21.50;70.60
68719;DHT22;55696;52.138;5.444;2023-10-08T02:00:14;21.30;69.70
68719;DHT22;55696;52.138;5.444;2023-10-08T02:02:46;20.90;69.60
68719;DHT22;55696;52.138;5.444;2023-10-08T02:05:14;21.10;69.80
68719;DHT22;55696;52.138;5.444;2023-10-08T02:07:42;20.90;69.70
68719;DHT22;55696;52.138;5.444;2023-10-08T02:10:12;21.80;70.20
68719;DHT22;55696;52.138;5.444;2023-10-08T02:12:41;20.50;69.70
68719;DHT22;55696;52.138;5.444;2023-10-08T02:15:08;21.70;70.30
68719;DHT22;55696;52.138;5.444;2023-10-08T02:17:38;20.90;69.90
68719;DHT22;55696;52.138;5.444;2023-10-08T02:20:06;20.80;69.90
68719;DHT22;55696;52.138;5.444;2023-10-08T02:22:33;20.80;69.90
68719;DHT22;55696;52.138;5.444;2023-10-08T02:25:01;20.70;69.90
68719;DHT22;55696;52.138;5.444;2023-10-08T02:27:28;20.80;70.00
68719;DHT22;55696;52.138;5.444;2023-10-08T02:29:55;20.80;71.00
68719;DHT22;55696;52.138;5.444;2023-10-08T02:32:23;21.30;70.30
68719;DHT22;55696;52.138;5.444;2023-10-08T02:34:50;20.90;70.20
68719;DHT22;55696;52.138;5.444;2023-10-08T02:37:17;20.80;70.20
68719;DHT22;55696;52.138;5.444;2023-10-08T02:39:46;20.70;70.30
68719;DHT22;55696;52.138;5.444;2023-10-08T02:42:13;20.90;70.50
68719;DHT22;55696;52.138;5.444;2023-10-08T02:44:40;20.60;70.40
68719;DHT22;55696;52.138;5.444;2023-10-08T02:47:11;20.80;70.40
68719;DHT22;55696;52.138;5.444;2023-10-08T02:49:47;20.90;70.50
68719;DHT22;55696;52.138;5.444;2023-10-08T02:52:15;21.40;70.60
68719;DHT22;55696;52.138;5.444;2023-10-08T02:54:42;20.90;70.40
68719;DHT22;55696;52.138;5.444;2023-10-08T02:57:09;20.60;70.30
68719;DHT22;55696;52.138;5.444;2023-10-08T02:59:41;21.50;70.80
68719;DHT22;55696;52.138;5.444;2023-10-08T03:02:12;20.70;70.50
68719;DHT22;55696;52.138;5.444;2023-10-08T03:04:49;20.70;70.70
68719;DHT22;55696;52.138;5.444;2023-10-08T03:07:19;20.80;70.60
68719;DHT22;55696;52.138;5.444;2023-10-08T03:09:59;21.20;70.80
68719;DHT22;55696;52.138;5.444;2023-10-08T03:12:33;21.20;70.70
68719;DHT22;55696;52.138;5.444;2023-10-08T03:15:01;20.80;70.60
68719;DHT22;55696;52.138;5.444;2023-10-08T03:17:43;20.60;70.40
68719;DHT22;55696;52.138;5.444;2023-10-08T03:20:16;20.90;70.70
68719;DHT22;55696;52.138;5.444;2023-10-08T03:23:02;20.70;70.40
68719;DHT22;55696;52.138;5.444;2023-10-08T03:25:33;20.80;70.50
68719;DHT22;55696;52.138;5.444;2023-10-08T03:28:08;21.30;70.80
68719;DHT22;55696;52.138;5.444;2023-10-08T03:30:35;20.50;70.50
68719;DHT22;55696;52.138;5.444;2023-10-08T03:33:15;21.30;70.80
68719;DHT22;55696;52.138;5.444;2023-10-08T03:35:50;20.60;70.40
68719;DHT22;55696;52.138;5.444;2023-10-08T03:38:21;21.00;70.80
68719;DHT22;55696;52.138;5.444;2023-10-08T03:41:08;20.70;70.70
68719;DHT22;55696;52.138;5.444;2023-10-08T03:43:36;21.00;71.00
68719;DHT22;55696;52.138;5.444;2023-10-08T03:46:13;20.60;71.00
68719;DHT22;55696;52.138;5.444;2023-10-08T03:48:43;20.60;71.00
68719;DHT22;55696;52.138;5.444;2023-10-08T03:51:12;20.60;71.00
68719;DHT22;55696;52.138;5.444;2023-10-08T03:53:39;20.60;71.00
68719;DHT22;55696;52.138;5.444;2023-10-08T03:56:25;20.60;70.80
68719;DHT22;55696;52.138;5.444;2023-10-08T03:58:52;20.60;70.80
68719;DHT22;55696;52.138;5.444;2023-10-08T04:01:21;20.70;70.80
68719;DHT22;55696;52.138;5.444;2023-10-08T04:03:50;21.50;71.10
68719;DHT22;55696;52.138;5.444;2023-10-08T04:06:20;21.30;71.00
68719;DHT22;55696;52.138;5.444;2023-10-08T04:08:59;20.50;70.50
68719;DHT22;55696;52.138;5.444;2023-10-08T04:11:37;20.40;70.40
68719;DHT22;55696;52.138;5.444;2023-10-08T04:14:23;20.10;70.30
68719;DHT22;55696;52.138;5.444;2023-10-08T04:16:51;20.10;70.40
68719;DHT22;55696;52.138;5.444;2023-10-08T04:19:20;19.90;70.60
68719;DHT22;55696;52.138;5.444;2023-10-08T04:21:48;19.70;70.10
68719;DHT22;55696;52.138;5.444;2023-10-08T04:24:22;19.70;70.10
68719;DHT22;55696;52.138;5.444;2023-10-08T04:26:55;19.60;70.10
68719;DHT22;55696;52.138;5.444;2023-10-08T04:29:26;19.40;70.10
68719;DHT22;55696;52.138;5.444;2023-10-08T04:31:53;19.30;70.30
68719;DHT22;55696;52.138;5.444;2023-10-08T04:34:35;19.30;70.20
68719;DHT22;55696;52.138;5.444;2023-10-08T04:37:03;19.60;70.30
68719;DHT22;55696;52.138;5.444;2023-10-08T04:39:41;19.50;70.00
68719;DHT22;55696;52.138;5.444;2023-10-08T04:42:14;19.50;70.10
68719;DHT22;55696;52.138;5.444;2023-10-08T04:44:52;19.60;69.70
68719;DHT22;55696;52.138;5.444;2023-10-08T04:47:19;19.20;69.30
68719;DHT22;55696;52.138;5.444;2023-10-08T04:49:59;19.60;69.50
68719;DHT22;55696;52.138;5.444;2023-10-08T04:52:26;19.50;69.40
68719;DHT22;55696;52.138;5.444;2023-10-08T04:54:54;19.40;69.10
68719;DHT22;55696;52.138;5.444;2023-10-08T04:57:22;19.30;69.30
68719;DHT22;55696;52.138;5.444;2023-10-08T04:59:52;19.20;69.40
68719;DHT22;55696;52.138;5.444;2023-10-08T05:02:24;19.20;69.50
68719;DHT22;55696;52.138;5.444;2023-10-08T05:05:14;19.30;69.70
68719;DHT22;55696;52.138;5.444;2023-10-08T05:07:44;20.00;70.30
68719;DHT22;55696;52.138;5.444;2023-10-08T05:10:12;19.10;70.00
68719;DHT22;55696;52.138;5.444;2023-10-08T05:12:39;19.60;70.50
68719;DHT22;55696;52.138;5.444;2023-10-08T05:15:12;19.10;70.00
68719;DHT22;55696;52.138;5.444;2023-10-08T05:17:46;19.20;70.00
68719;DHT22;55696;52.138;5.444;2023-10-08T05:20:20;19.10;70.40
68719;DHT22;55696;52.138;5.444;2023-10-08T05:23:08;19.50;70.50
68719;DHT22;55696;52.138;5.444;2023-10-08T05:25:55;19.10;70.40
68719;DHT22;55696;52.138;5.444;2023-10-08T05:28:39;19.20;70.70
68719;DHT22;55696;52.138;5.444;2023-10-08T05:31:24;19.30;70.40
68719;DHT22;55696;52.138;5.444;2023-10-08T05:34:10;19.00;69.80
68719;DHT22;55696;52.138;5.444;2023-10-08T05:36:59;19.00;69.80
68719;DHT22;55696;52.138;5.444;2023-10-08T05:39:26;18.90;69.10
68719;DHT22;55696;52.138;5.444;2023-10-08T05:42:00;18.80;69.00
68719;DHT22;55696;52.138;5.444;2023-10-08T05:44:44;18.70;68.80
68719;DHT22;55696;52.138;5.444;2023-10-08T05:47:34;19.00;69.50
68719;DHT22;55696;52.138;5.444;2023-10-08T05:50:03;19.00;68.70
68719;DHT22;55696;52.138;5.444;2023-10-08T05:52:46;18.80;68.70
68719;DHT22;55696;52.138;5.444;2023-10-08T05:55:29;18.60;68.10
68719;DHT22;55696;52.138;5.444;2023-10-08T05:58:05;18.40;68.00
68719;DHT22;55696;52.138;5.444;2023-10-08T06:00:47;18.50;69.80
68719;DHT22;55696;52.138;5.444;2023-10-08T06:03:18;18.30;68.30
68719;DHT22;55696;52.138;5.444;2023-10-08T06:06:05;18.30;68.30
68719;DHT22;55696;52.138;5.444;2023-10-08T06:08:38;18.50;68.70
68719;DHT22;55696;52.138;5.444;2023-10-08T06:11:17;18.40;67.90
68719;DHT22;55696;52.138;5.444;2023-10-08T06:13:57;18.30;67.90
68719;DHT22;55696;52.138;5.444;2023-10-08T06:16:27;18.20;67.70
68719;DHT22;55696;52.138;5.444;2023-10-08T06:19:08;18.20;67.50
68719;DHT22;55696;52.138;5.444;2023-10-08T06:21:41;18.40;67.60
68719;DHT22;55696;52.138;5.444;2023-10-08T06:24:09;18.40;67.80
68719;DHT22;55696;52.138;5.444;2023-10-08T06:26:40;18.30;67.50
68719;DHT22;55696;52.138;5.444;2023-10-08T06:29:12;18.80;67.80
68719;DHT22;55696;52.138;5.444;2023-10-08T06:31:57;18.40;67.40
68719;DHT22;55696;52.138;5.444;2023-10-08T06:34:24;18.20;67.50
68719;DHT22;55696;52.138;5.444;2023-10-08T06:36:58;18.20;67.10
68719;DHT22;55696;52.138;5.444;2023-10-08T06:39:25;18.40;67.50
68719;DHT22;55696;52.138;5.444;2023-10-08T06:42:00;18.40;67.10
68719;DHT22;55696;52.138;5.444;2023-10-08T06:44:30;18.60;67.20
68719;DHT22;55696;52.138;5.444;2023-10-08T06:46:57;18.20;66.90
68719;DHT22;55696;52.138;5.444;2023-10-08T06:49:25;18.40;66.80
68719;DHT22;55696;52.138;5.444;2023-10-08T06:51:52;18.40;66.70
68719;DHT22;55696;52.138;5.444;2023-10-08T06:54:20;18.40;66.70
68719;DHT22;55696;52.138;5.444;2023-10-08T06:56:49;18.20;66.70
68719;DHT22;55696;52.138;5.444;2023-10-08T06:59:19;18.40;66.40
68719;DHT22;55696;52.138;5.444;2023-10-08T07:01:49;18.30;66.50
68719;DHT22;55696;52.138;5.444;2023-10-08T07:04:18;18.30;66.50
68719;DHT22;55696;52.138;5.444;2023-10-08T07:06:46;18.80;66.70
68719;DHT22;55696;52.138;5.444;2023-10-08T07:09:13;18.30;66.30
68719;DHT22;55696;52.138;5.444;2023-10-08T07:11:50;18.70;66.60
68719;DHT22;55696;52.138;5.444;2023-10-08T07:14:25;18.40;66.20
68719;DHT22;55696;52.138;5.444;2023-10-08T07:16:57;18.40;66.90
68719;DHT22;55696;52.138;5.444;2023-10-08T07:19:29;18.30;66.20
68719;DHT22;55696;52.138;5.444;2023-10-08T07:22:05;18.50;66.30
68719;DHT22;55696;52.138;5.444;2023-10-08T07:24:45;18.50;66.30
68719;DHT22;55696;52.138;5.444;2023-10-08T07:27:13;18.50;66.10
68719;DHT22;55696;52.138;5.444;2023-10-08T07:29:40;18.40;66.10
68719;DHT22;55696;52.138;5.444;2023-10-08T07:32:07;18.40;66.20
68719;DHT22;55696;52.138;5.444;2023-10-08T07:34:37;18.50;66.10
68719;DHT22;55696;52.138;5.444;2023-10-08T07:37:04;18.60;66.30
68719;DHT22;55696;52.138;5.444;2023-10-08T07:39:32;18.60;65.90
68719;DHT22;55696;52.138;5.444;2023-10-08T07:42:01;18.60;65.70
68719;DHT22;55696;52.138;5.444;2023-10-08T07:44:28;18.80;65.90
68719;DHT22;55696;52.138;5.444;2023-10-08T07:46:55;18.80;65.60
68719;DHT22;55696;52.138;5.444;2023-10-08T07:49:25;18.70;65.40
68719;DHT22;55696;52.138;5.444;2023-10-08T07:51:58;18.80;65.50
68719;DHT22;55696;52.138;5.444;2023-10-08T07:54:28;18.90;65.20
68719;DHT22;55696;52.138;5.444;2023-10-08T07:56:55;19.00;64.80
68719;DHT22;55696;52.138;5.444;2023-10-08T07:59:37;18.90;64.60
68719;DHT22;55696;52.138;5.444;2023-10-08T08:02:15;19.00;64.70
68719;DHT22;55696;52.138;5.444;2023-10-08T08:04:45;19.00;64.70
68719;DHT22;55696;52.138;5.444;2023-10-08T08:07:13;20.10;65.30
68719;DHT22;55696;52.138;5.444;2023-10-08T08:09:43;19.20;64.70
68719;DHT22;55696;52.138;5.444;2023-10-08T08:12:19;19.30;64.40
68719;DHT22;55696;52.138;5.444;2023-10-08T08:14:48;19.90;64.30
68719;DHT22;55696;52.138;5.444;2023-10-08T08:17:15;19.60;63.80
68719;DHT22;55696;52.138;5.444;2023-10-08T08:19:44;19.50;63.50
68719;DHT22;55696;52.138;5.444;2023-10-08T08:22:13;19.50;63.40
68719;DHT22;55696;52.138;5.444;2023-10-08T08:24:53;19.30;63.40
68719;DHT22;55696;52.138;5.444;2023-10-08T08:27:25;20.00;64.00
68719;DHT22;55696;52.138;5.444;2023-10-08T08:30:01;20.10;63.60
68719;DHT22;55696;52.138;5.444;2023-10-08T08:32:37;19.50;63.30
68719;DHT22;55696;52.138;5.444;2023-10-08T08:35:11;19.40;63.20
68719;DHT22;55696;52.138;5.444;2023-10-08T08:37:38;19.40;63.20
68719;DHT22;55696;52.138;5.444;2023-10-08T08:40:07;19.20;62.80
68719;DHT22;55696;52.138;5.444;2023-10-08T08:42:51;19.40;62.70
68719;DHT22;55696;52.138;5.444;2023-10-08T08:45:25;19.30;62.30
68719;DHT22;55696;52.138;5.444;2023-10-08T08:47:53;19.30;62.30
68719;DHT22;55696;52.138;5.444;2023-10-08T08:50:21;19.30;62.30
68719;DHT22;55696;52.138;5.444;2023-10-08T08:52:49;19.50;62.30
68719;DHT22;55696;52.138;5.444;2023-10-08T08:55:18;20.00;62.60
68719;DHT22;55696;52.138;5.444;2023-10-08T08:57:48;19.70;62.20
68719;DHT22;55696;52.138;5.444;2023-10-08T09:00:18;19.80;62.30
68719;DHT22;55696;52.138;5.444;2023-10-08T09:02:46;19.80;62.00
68719;DHT22;55696;52.138;5.444;2023-10-08T09:05:16;20.00;61.70
68719;DHT22;55696;52.138;5.444;2023-10-08T09:07:57;20.30;61.30
68719;DHT22;55696;52.138;5.444;2023-10-08T09:10:26;19.80;61.30
68719;DHT22;55696;52.138;5.444;2023-10-08T09:12:57;19.80;61.90
68719;DHT22;55696;52.138;5.444;2023-10-08T09:15:26;19.70;61.00
68719;DHT22;55696;52.138;5.444;2023-10-08T09:17:54;19.90;61.20
68719;DHT22;55696;52.138;5.444;2023-10-08T09:20:22;19.90;61.00
68719;DHT22;55696;52.138;5.444;2023-10-08T09:23:06;20.00;61.00
68719;DHT22;55696;52.138;5.444;2023-10-08T09:25:34;19.90;61.60
68719;DHT22;55696;52.138;5.444;2023-10-08T09:28:02;19.80;60.80
68719;DHT22;55696;52.138;5.444;2023-10-08T09:30:30;20.10;60.90
68719;DHT22;55696;52.138;5.444;2023-10-08T09:32:57;21.20;61.20
68719;DHT22;55696;52.138;5.444;2023-10-08T09:35:24;20.20;60.40
68719;DHT22;55696;52.138;5.444;2023-10-08T09:37:54;20.30;60.40
68719;DHT22;55696;52.138;5.444;2023-10-08T09:40:22;20.30;60.30
68719;DHT22;55696;52.138;5.444;2023-10-08T09:42:49;20.40;60.30
68719;DHT22;55696;52.138;5.444;2023-10-08T09:45:17;20.30;60.20
68719;DHT22;55696;52.138;5.444;2023-10-08T09:47:55;20.30;60.20
68719;DHT22;55696;52.138;5.444;2023-10-08T09:50:32;20.40;60.10
68719;DHT22;55696;52.138;5.444;2023-10-08T09:53:13;20.40;60.40
68719;DHT22;55696;52.138;5.444;2023-10-08T09:55:53;20.40;60.30
68719;DHT22;55696;52.138;5.444;2023-10-08T09:58:22;20.40;60.00
68719;DHT22;55696;52.138;5.444;2023-10-08T10:00:49;20.50;60.20
68719;DHT22;55696;52.138;5.444;2023-10-08T10:03:17;20.30;60.00
68719;DHT22;55696;52.138;5.444;2023-10-08T10:05:47;20.50;60.20
68719;DHT22;55696;52.138;5.444;2023-10-08T10:08:14;20.40;60.00
68719;DHT22;55696;52.138;5.444;2023-10-08T10:10:42;20.40;60.00
68719;DHT22;55696;52.138;5.444;2023-10-08T10:13:16;20.60;60.00
68719;DHT22;55696;52.138;5.444;2023-10-08T10:15:44;20.60;60.20
68719;DHT22;55696;52.138;5.444;2023-10-08T10:18:15;20.60;59.80
68719;DHT22;55696;52.138;5.444;2023-10-08T10:20:46;20.70;59.80
68719;DHT22;55696;52.138;5.444;2023-10-08T10:26:04;21.40;60.30
68719;DHT22;55696;52.138;5.444;2023-10-08T10:28:31;21.60;60.00
68719;DHT22;55696;52.138;5.444;2023-10-08T10:30:59;21.20;59.80
68719;DHT22;55696;52.138;5.444;2023-10-08T10:33:31;21.00;59.80
68719;DHT22;55696;52.138;5.444;2023-10-08T10:36:00;20.70;59.90
68719;DHT22;55696;52.138;5.444;2023-10-08T10:38:29;21.80;60.30
68719;DHT22;55696;52.138;5.444;2023-10-08T10:40:56;20.80;59.50
68719;DHT22;55696;52.138;5.444;2023-10-08T10:43:26;21.30;59.50
68719;DHT22;55696;52.138;5.444;2023-10-08T10:46:00;21.00;59.30
68719;DHT22;55696;52.138;5.444;2023-10-08T10:48:47;20.90;59.20
68719;DHT22;55696;52.138;5.444;2023-10-08T10:51:32;20.60;59.10
68719;DHT22;55696;52.138;5.444;2023-10-08T10:54:00;21.80;59.80
68719;DHT22;55696;52.138;5.444;2023-10-08T10:56:35;21.00;59.50
68719;DHT22;55696;52.138;5.444;2023-10-08T10:59:10;20.80;59.40
68719;DHT22;55696;52.138;5.444;2023-10-08T11:01:46;21.50;59.70
68719;DHT22;55696;52.138;5.444;2023-10-08T11:04:19;20.80;59.40
68719;DHT22;55696;52.138;5.444;2023-10-08T11:06:56;21.10;59.60
68719;DHT22;55696;52.138;5.444;2023-10-08T11:09:25;21.10;59.50
68719;DHT22;55696;52.138;5.444;2023-10-08T11:12:03;21.20;59.40
68719;DHT22;55696;52.138;5.444;2023-10-08T11:14:42;21.30;59.10
68719;DHT22;55696;52.138;5.444;2023-10-08T11:17:13;21.20;59.10
68719;DHT22;55696;52.138;5.444;2023-10-08T11:19:45;21.10;59.40
68719;DHT22;55696;52.138;5.444;2023-10-08T11:22:15;21.70;60.00
68719;DHT22;55696;52.138;5.444;2023-10-08T11:24:49;22.20;60.10
68719;DHT22;55696;52.138;5.444;2023-10-08T11:27:21;21.40;59.20
68719;DHT22;55696;52.138;5.444;2023-10-08T11:30:02;21.70;58.90
68719;DHT22;55696;52.138;5.444;2023-10-08T11:32:34;21.40;58.70
68719;DHT22;55696;52.138;5.444;2023-10-08T11:35:01;21.60;58.90
68719;DHT22;55696;52.138;5.444;2023-10-08T11:37:46;21.10;58.70
68719;DHT22;55696;52.138;5.444;2023-10-08T11:40:25;21.00;59.10
68719;DHT22;55696;52.138;5.444;2023-10-08T11:43:10;21.00;59.20
68719;DHT22;55696;52.138;5.444;2023-10-08T11:45:43;21.00;59.30
68719;DHT22;55696;52.138;5.444;2023-10-08T11:48:15;20.90;59.40
68719;DHT22;55696;52.138;5.444;2023-10-08T11:50:48;20.80;59.60
68719;DHT22;55696;52.138;5.444;2023-10-08T11:53:17;20.60;59.60
68719;DHT22;55696;52.138;5.444;2023-10-08T11:55:46;20.80;59.60
68719;DHT22;55696;52.138;5.444;2023-10-08T11:58:14;20.90;59.70
68719;DHT22;55696;52.138;5.444;2023-10-08T12:00:45;21.40;59.50
68719;DHT22;55696;52.138;5.444;2023-10-08T12:03:15;21.70;59.70
68719;DHT22;55696;52.138;5.444;2023-10-08T12:05:48;21.80;59.60
68719;DHT22;55696;52.138;5.444;2023-10-08T12:08:18;20.90;59.10
68719;DHT22;55696;52.138;5.444;2023-10-08T12:10:47;21.70;59.40
68719;DHT22;55696;52.138;5.444;2023-10-08T12:13:15;21.00;58.90
68719;DHT22;55696;52.138;5.444;2023-10-08T12:15:46;21.70;59.40
68719;DHT22;55696;52.138;5.444;2023-10-08T12:18:14;21.50;59.30
68719;DHT22;55696;52.138;5.444;2023-10-08T12:20:55;21.00;58.90
68719;DHT22;55696;52.138;5.444;2023-10-08T12:23:22;22.30;59.60
68719;DHT22;55696;52.138;5.444;2023-10-08T12:25:53;21.20;58.90
68719;DHT22;55696;52.138;5.444;2023-10-08T12:28:23;21.30;58.90
68719;DHT22;55696;52.138;5.444;2023-10-08T12:30:51;21.00;58.90
68719;DHT22;55696;52.138;5.444;2023-10-08T12:33:23;20.90;59.10
68719;DHT22;55696;52.138;5.444;2023-10-08T12:35:52;21.00;59.30
68719;DHT22;55696;52.138;5.444;2023-10-08T12:38:25;21.10;59.40
68719;DHT22;55696;52.138;5.444;2023-10-08T12:40:55;21.60;59.60
68719;DHT22;55696;52.138;5.444;2023-10-08T12:43:24;21.80;59.70
68719;DHT22;55696;52.138;5.444;2023-10-08T12:45:54;21.90;60.50
68719;DHT22;55696;52.138;5.444;2023-10-08T12:48:24;22.10;59.60
68719;DHT22;55696;52.138;5.444;2023-10-08T12:50:54;21.20;58.90
68719;DHT22;55696;52.138;5.444;2023-10-08T12:53:25;21.20;59.10
68719;DHT22;55696;52.138;5.444;2023-10-08T12:56:08;21.00;59.00
68719;DHT22;55696;52.138;5.444;2023-10-08T12:58:42;21.10;59.10
68719;DHT22;55696;52.138;5.444;2023-10-08T13:01:11;21.30;59.30
68719;DHT22;55696;52.138;5.444;2023-10-08T13:03:38;21.00;59.20
68719;DHT22;55696;52.138;5.444;2023-10-08T13:06:16;20.90;59.30
68719;DHT22;55696;52.138;5.444;2023-10-08T13:08:50;20.90;59.40
68719;DHT22;55696;52.138;5.444;2023-10-08T13:11:23;20.80;59.30
68719;DHT22;55696;52.138;5.444;2023-10-08T13:13:51;20.80;59.50
68719;DHT22;55696;52.138;5.444;2023-10-08T13:16:19;21.20;59.70
68719;DHT22;55696;52.138;5.444;2023-10-08T13:18:48;21.40;59.40
68719;DHT22;55696;52.138;5.444;2023-10-08T13:21:16;20.90;59.10
68719;DHT22;55696;52.138;5.444;2023-10-08T13:23:42;21.00;59.00
68719;DHT22;55696;52.138;5.444;2023-10-08T13:26:09;21.10;58.60
68719;DHT22;55696;52.138;5.444;2023-10-08T13:28:36;21.20;58.80
68719;DHT22;55696;52.138;5.444;2023-10-08T13:31:03;21.00;58.80
68719;DHT22;55696;52.138;5.444;2023-10-08T13:33:42;21.00;58.80
68719;DHT22;55696;52.138;5.444;2023-10-08T13:36:10;21.80;59.40
68719;DHT22;55696;52.138;5.444;2023-10-08T13:38:45;21.20;58.90
68719;DHT22;55696;52.138;5.444;2023-10-08T13:41:13;21.30;58.80
68719;DHT22;55696;52.138;5.444;2023-10-08T13:43:48;21.50;59.20
68719;DHT22;55696;52.138;5.444;2023-10-08T13:46:19;21.00;59.10
68719;DHT22;55696;52.138;5.444;2023-10-08T13:48:49;21.00;58.90
68719;DHT22;55696;52.138;5.444;2023-10-08T13:51:17;21.10;59.00
68719;DHT22;55696;52.138;5.444;2023-10-08T13:53:57;21.20;58.90
68719;DHT22;55696;52.138;5.444;2023-10-08T13:56:29;21.30;58.70
68719;DHT22;55696;52.138;5.444;2023-10-08T13:59:00;21.30;58.50
68719;DHT22;55696;52.138;5.444;2023-10-08T14:01:31;21.90;60.10
68719;DHT22;55696;52.138;5.444;2023-10-08T14:04:01;21.30;58.90
68719;DHT22;55696;52.138;5.444;2023-10-08T14:06:34;21.30;58.70
68719;DHT22;55696;52.138;5.444;2023-10-08T14:09:02;21.50;59.00
68719;DHT22;55696;52.138;5.444;2023-10-08T14:11:34;21.10;59.00
68719;DHT22;55696;52.138;5.444;2023-10-08T14:14:01;21.40;59.20
68719;DHT22;55696;52.138;5.444;2023-10-08T14:16:40;21.20;58.90
68719;DHT22;55696;52.138;5.444;2023-10-08T14:19:13;21.20;59.10
68719;DHT22;55696;52.138;5.444;2023-10-08T14:21:41;21.50;59.20
68719;DHT22;55696;52.138;5.444;2023-10-08T14:24:26;21.20;60.00
68719;DHT22;55696;52.138;5.444;2023-10-08T14:26:59;21.10;59.00
68719;DHT22;55696;52.138;5.444;2023-10-08T14:29:29;20.90;59.10
68719;DHT22;55696;52.138;5.444;2023-10-08T14:31:56;21.40;59.50
68719;DHT22;55696;52.138;5.444;2023-10-08T14:34:24;20.90;59.30
68719;DHT22;55696;52.138;5.444;2023-10-08T14:37:09;21.00;59.40
68719;DHT22;55696;52.138;5.444;2023-10-08T14:39:55;21.10;59.80
68719;DHT22;55696;52.138;5.444;2023-10-08T14:42:40;21.80;60.00
68719;DHT22;55696;52.138;5.444;2023-10-08T14:45:27;20.80;59.50
68719;DHT22;55696;52.138;5.444;2023-10-08T14:47:58;20.80;59.70
68719;DHT22;55696;52.138;5.444;2023-10-08T14:50:26;20.80;59.80
68719;DHT22;55696;52.138;5.444;2023-10-08T14:52:55;21.40;60.10
68719;DHT22;55696;52.138;5.444;2023-10-08T14:55:22;21.50;60.20
68719;DHT22;55696;52.138;5.444;2023-10-08T14:57:50;20.90;59.90
68719;DHT22;55696;52.138;5.444;2023-10-08T15:00:21;21.10;60.00
68719;DHT22;55696;52.138;5.444;2023-10-08T15:02:54;21.00;60.10
68719;DHT22;55696;52.138;5.444;2023-10-08T15:05:22;21.00;60.10
68719;DHT22;55696;52.138;5.444;2023-10-08T15:07:52;21.10;60.30
68719;DHT22;55696;52.138;5.444;2023-10-08T15:10:20;21.40;60.80
68719;DHT22;55696;52.138;5.444;2023-10-08T15:12:50;20.80;60.30
68719;DHT22;55696;52.138;5.444;2023-10-08T15:15:19;21.60;60.70
68719;DHT22;55696;52.138;5.444;2023-10-08T15:17:47;20.90;60.40
68719;DHT22;55696;52.138;5.444;2023-10-08T15:20:17;20.70;60.60
68719;DHT22;55696;52.138;5.444;2023-10-08T15:22:47;20.90;60.80
68719;DHT22;55696;52.138;5.444;2023-10-08T15:25:17;21.50;61.20
68719;DHT22;55696;52.138;5.444;2023-10-08T15:27:45;20.70;61.10
68719;DHT22;55696;52.138;5.444;2023-10-08T15:30:15;20.80;61.20
68719;DHT22;55696;52.138;5.444;2023-10-08T15:32:44;20.70;61.30
68719;DHT22;55696;52.138;5.444;2023-10-08T15:35:12;20.70;61.40
68719;DHT22;55696;52.138;5.444;2023-10-08T15:37:41;20.80;61.40
68719;DHT22;55696;52.138;5.444;2023-10-08T15:40:09;20.70;61.30
68719;DHT22;55696;52.138;5.444;2023-10-08T15:42:48;20.80;61.40
68719;DHT22;55696;52.138;5.444;2023-10-08T15:45:21;21.80;62.20
68719;DHT22;55696;52.138;5.444;2023-10-08T15:47:49;20.60;61.60
68719;DHT22;55696;52.138;5.444;2023-10-08T15:50:18;20.60;61.60
68719;DHT22;55696;52.138;5.444;2023-10-08T15:52:51;21.10;62.00
68719;DHT22;55696;52.138;5.444;2023-10-08T15:55:20;20.60;61.70
68719;DHT22;55696;52.138;5.444;2023-10-08T15:57:50;20.60;61.90
68719;DHT22;55696;52.138;5.444;2023-10-08T16:00:17;20.60;62.10
68719;DHT22;55696;52.138;5.444;2023-10-08T16:02:45;20.70;62.30